Time;durP1;ratioP1;P1;durP2;ratioP2;P2;SDS_P1;SDS_P2;PMS_P1;PMS_P2;Temp;Humidity;BMP_temperature;BMP_pressure;BME280_temperature;BME280_humidity;BME280_pressure;Samples;Min_cycle;Max_cycle;Signal;HPM_P1;HPM_P2
2022/10/27 00:00:48;;;;;;;12.63;6.47;;;13.70;99.90;;;;;;5030044;28;20133;-46
2022/10/27 00:03:16;;;;;;;13.18;6.35;;;13.60;99.90;;;;;;5034640;28;20132;-43
2022/10/27 00:05:44;;;;;;;16.10;6.57;;;13.60;99.90;;;;;;5034988;28;20076;-45
2022/10/27 00:08:13;;;;;;;16.02;7.07;;;13.60;99.90;;;;;;5035725;28;20057;-43
2022/10/27 00:10:41;;;;;;;16.23;6.75;;;13.60;99.90;;;;;;5052566;28;20576;-47
2022/10/27 00:13:08;;;;;;;16.73;7.50;;;13.50;99.90;;;;;;5033378;28;20080;-42
2022/10/27 00:15:34;;;;;;;12.43;6.45;;;13.50;99.90;;;;;;5052926;28;20091;-47
2022/10/27 00:18:01;;;;;;;11.88;6.30;;;13.50;99.90;;;;;;5034952;28;20132;-46
2022/10/27 00:20:28;;;;;;;12.80;6.70;;;13.50;99.90;;;;;;5035983;28;20447;-47
2022/10/27 00:22:56;;;;;;;17.25;6.80;;;13.40;99.90;;;;;;5035082;28;20088;-46
2022/10/27 00:25:23;;;;;;;16.10;7.22;;;13.40;99.90;;;;;;5051671;28;20057;-44
2022/10/27 00:27:50;;;;;;;14.23;6.43;;;13.40;99.90;;;;;;5035749;28;20126;-46
2022/10/27 00:30:18;;;;;;;15.70;6.00;;;13.40;99.90;;;;;;5035070;28;20139;-44
2022/10/27 00:32:45;;;;;;;18.20;6.88;;;13.40;99.90;;;;;;5051434;28;20139;-44
2022/10/27 00:35:11;;;;;;;18.50;7.22;;;13.40;99.90;;;;;;5051758;28;20077;-45
2022/10/27 00:37:38;;;;;;;18.30;7.70;;;13.40;99.90;;;;;;5053163;28;20127;-47
2022/10/27 00:40:08;;;;;;;12.50;6.93;;;13.40;99.90;;;;;;5036047;28;20139;-46
2022/10/27 00:42:34;;;;;;;16.77;7.45;;;13.40;99.90;;;;;;5032904;28;20511;-44
2022/10/27 00:45:01;;;;;;;16.02;7.55;;;13.40;99.90;;;;;;5052590;28;20087;-43
2022/10/27 00:47:30;;;;;;;14.45;7.57;;;13.40;99.90;;;;;;5052374;28;20045;-48
2022/10/27 00:49:58;;;;;;;17.33;6.97;;;13.40;99.90;;;;;;5035795;28;20060;-42
2022/10/27 00:52:28;;;;;;;16.20;7.22;;;13.40;99.90;;;;;;5031574;28;20447;-44
2022/10/27 00:54:57;;;;;;;14.80;7.38;;;13.40;99.90;;;;;;5033509;28;20128;-45
2022/10/27 00:57:25;;;;;;;12.68;7.22;;;13.40;99.90;;;;;;5051724;28;20106;-45
2022/10/27 00:59:51;;;;;;;18.00;7.95;;;13.40;99.90;;;;;;5053046;28;20057;-45
2022/10/27 01:02:19;;;;;;;13.35;7.65;;;13.40;99.90;;;;;;5050831;28;20504;-44
2022/10/27 01:04:49;;;;;;;13.07;7.38;;;13.40;99.90;;;;;;5034703;28;20053;-46
2022/10/27 01:07:17;;;;;;;19.90;7.53;;;13.30;99.90;;;;;;5034667;28;20144;-42
2022/10/27 01:09:43;;;;;;;18.20;7.82;;;13.30;99.90;;;;;;5052441;28;20128;-46
2022/10/27 01:12:10;;;;;;;17.80;8.85;;;13.30;99.90;;;;;;5033209;28;20132;-44
2022/10/27 01:14:38;;;;;;;17.90;8.60;;;13.30;99.90;;;;;;5035060;28;20139;-44
2022/10/27 01:17:11;;;;;;;15.40;8.23;;;13.30;99.90;;;;;;5051835;28;20091;-43
2022/10/27 01:20:08;;;;;;;16.05;8.05;;;13.30;99.90;;;;;;5034784;28;20098;-46
2022/10/27 01:22:36;;;;;;;15.63;8.70;;;13.30;99.90;;;;;;5047669;28;20147;-43
2022/10/27 01:25:12;;;;;;;19.52;9.35;;;13.30;99.90;;;;;;5035080;28;20430;-43
2022/10/27 01:28:05;;;;;;;19.77;8.95;;;13.30;99.90;;;;;;5032307;28;20076;-48
2022/10/27 01:30:33;;;;;;;21.48;9.73;;;13.30;99.90;;;;;;5048248;28;20576;-44
2022/10/27 01:33:04;;;;;;;21.25;9.35;;;13.30;99.90;;;;;;5026879;28;20142;-43
2022/10/27 01:35:34;;;;;;;21.00;10.02;;;13.40;99.90;;;;;;5032530;28;20536;-46
2022/10/27 01:38:06;;;;;;;23.80;9.82;;;13.40;99.90;;;;;;5032139;28;20093;-46
2022/10/27 01:40:35;;;;;;;19.98;9.65;;;13.40;99.90;;;;;;5034051;28;20088;-45
2022/10/27 01:43:04;;;;;;;28.38;11.43;;;13.40;99.90;;;;;;5051340;28;20503;-44
2022/10/27 01:45:32;;;;;;;18.85;9.35;;;13.50;99.90;;;;;;5045835;28;20136;-46
2022/10/27 01:47:59;;;;;;;18.25;9.13;;;13.50;99.90;;;;;;5033280;28;20076;-43
2022/10/27 01:50:29;;;;;;;19.50;9.23;;;13.50;99.90;;;;;;5030979;28;20045;-43
2022/10/27 01:52:56;;;;;;;25.67;9.55;;;13.50;99.90;;;;;;5051022;28;20128;-43
2022/10/27 01:55:30;;;;;;;17.73;9.60;;;13.50;99.90;;;;;;5032907;28;20087;-46
2022/10/27 01:58:15;;;;;;;16.92;9.20;;;13.60;99.90;;;;;;5050135;28;20055;-43
2022/10/27 02:00:48;;;;;;;23.23;9.90;;;13.60;99.90;;;;;;5033231;28;20052;-43
2022/10/27 02:03:16;;;;;;;20.80;10.13;;;13.60;99.90;;;;;;5049685;28;20052;-44
2022/10/27 02:05:49;;;;;;;15.43;8.95;;;13.60;99.90;;;;;;5033529;28;20171;-45
2022/10/27 02:08:19;;;;;;;16.17;8.88;;;13.60;99.90;;;;;;5050402;28;20072;-43
2022/10/27 02:10:49;;;;;;;21.90;9.77;;;13.70;99.90;;;;;;5049416;28;20088;-43
2022/10/27 02:13:16;;;;;;;23.65;9.50;;;13.70;99.90;;;;;;5052666;28;20087;-43
2022/10/27 02:15:43;;;;;;;17.35;9.40;;;13.70;99.90;;;;;;5034649;28;20136;-43
2022/10/27 02:18:12;;;;;;;25.17;9.52;;;13.70;99.90;;;;;;5032092;28;20095;-42
2022/10/27 02:20:40;;;;;;;17.70;9.27;;;13.70;99.90;;;;;;5050125;28;20084;-42
2022/10/27 02:23:10;;;;;;;21.48;9.88;;;13.80;99.90;;;;;;5033937;28;20092;-45
2022/10/27 02:25:41;;;;;;;20.67;10.55;;;13.70;99.90;;;;;;5033528;28;20497;-43
2022/10/27 02:28:08;;;;;;;14.38;9.02;;;13.80;99.90;;;;;;5032370;28;20068;-43
2022/10/27 02:30:34;;;;;;;22.55;11.02;;;13.80;99.90;;;;;;5050289;28;20459;-42
2022/10/27 02:33:01;;;;;;;28.33;10.82;;;13.70;99.90;;;;;;5052352;28;20146;-43
2022/10/27 02:35:28;;;;;;;20.70;11.07;;;13.80;99.90;;;;;;5032894;28;20065;-44
2022/10/27 02:37:57;;;;;;;19.15;10.30;;;13.80;99.90;;;;;;5049537;28;20130;-46
2022/10/27 02:40:25;;;;;;;22.92;10.90;;;13.80;99.90;;;;;;5027017;28;20080;-44
2022/10/27 02:42:52;;;;;;;19.95;10.70;;;13.80;99.90;;;;;;5032335;28;20045;-43
2022/10/27 02:45:20;;;;;;;21.85;10.90;;;13.80;99.90;;;;;;5029099;28;20074;-44
2022/10/27 02:47:47;;;;;;;21.67;11.82;;;13.80;99.90;;;;;;5030879;28;20481;-43
2022/10/27 02:50:13;;;;;;;19.50;10.88;;;13.80;99.90;;;;;;5030304;28;20095;-43
2022/10/27 02:52:42;;;;;;;18.75;11.65;;;13.70;99.90;;;;;;5033739;28;20045;-43
2022/10/27 02:55:09;;;;;;;25.98;11.55;;;13.80;99.90;;;;;;5051297;28;20095;-47
2022/10/27 02:57:37;;;;;;;18.92;10.38;;;13.80;99.90;;;;;;5051907;28;20408;-44
2022/10/27 03:00:05;;;;;;;29.35;11.80;;;13.80;99.90;;;;;;5036839;28;20563;-43
2022/10/27 03:02:32;;;;;;;18.33;10.98;;;13.80;99.90;;;;;;5036103;28;20053;-46
2022/10/27 03:04:59;;;;;;;21.98;10.93;;;13.80;99.90;;;;;;5055176;28;20505;-46
2022/10/27 03:07:25;;;;;;;22.83;10.18;;;13.80;99.90;;;;;;5032973;28;20059;-43
2022/10/27 03:09:52;;;;;;;25.75;11.73;;;13.80;99.90;;;;;;5037816;28;20140;-45
2022/10/27 03:12:19;;;;;;;20.15;11.50;;;13.80;99.90;;;;;;5036718;28;20441;-45
2022/10/27 03:14:47;;;;;;;17.92;11.07;;;13.80;99.90;;;;;;5054110;28;20572;-44
2022/10/27 03:17:14;;;;;;;19.35;9.90;;;13.80;99.90;;;;;;5052575;28;20053;-44
2022/10/27 03:19:41;;;;;;;24.67;10.23;;;13.80;99.90;;;;;;5053432;28;20139;-45
2022/10/27 03:22:07;;;;;;;23.50;11.13;;;13.70;99.90;;;;;;5036724;28;20568;-45
2022/10/27 03:24:34;;;;;;;20.40;10.90;;;13.80;99.90;;;;;;5055045;28;20178;-46
2022/10/27 03:27:01;;;;;;;23.40;10.40;;;13.70;99.90;;;;;;5036245;28;20073;-45
2022/10/27 03:29:28;;;;;;;25.45;10.60;;;13.70;99.90;;;;;;5036302;28;20092;-46
2022/10/27 03:31:56;;;;;;;19.02;9.70;;;13.70;99.90;;;;;;5054869;28;20135;-44
2022/10/27 03:34:23;;;;;;;20.02;10.80;;;13.70;99.90;;;;;;5037320;28;20400;-43
2022/10/27 03:36:49;;;;;;;18.63;9.27;;;13.70;99.90;;;;;;5034410;28;20049;-44
2022/10/27 03:39:16;;;;;;;21.55;9.80;;;13.70;99.90;;;;;;5036015;28;20131;-46
2022/10/27 03:41:43;;;;;;;18.13;8.82;;;13.60;99.90;;;;;;5051796;28;20138;-44
2022/10/27 03:44:10;;;;;;;18.08;9.98;;;13.60;99.90;;;;;;5053900;28;20052;-43
2022/10/27 03:46:37;;;;;;;19.27;9.65;;;13.60;99.90;;;;;;5053323;28;20132;-43
2022/10/27 03:49:05;;;;;;;23.42;10.18;;;13.60;99.90;;;;;;5035767;28;20076;-44
2022/10/27 03:51:31;;;;;;;18.80;9.40;;;13.50;99.90;;;;;;5053375;28;20115;-45
2022/10/27 03:53:58;;;;;;;18.38;9.63;;;13.50;99.90;;;;;;5045112;28;20124;-43
2022/10/27 03:56:25;;;;;;;16.48;9.02;;;13.50;99.90;;;;;;5032701;28;20140;-45
2022/10/27 03:58:52;;;;;;;15.93;8.32;;;13.40;99.90;;;;;;5048921;28;20072;-44
2022/10/27 04:01:19;;;;;;;18.55;9.30;;;13.40;99.90;;;;;;5023872;28;20057;-42
2022/10/27 04:03:48;;;;;;;16.88;8.93;;;13.30;99.90;;;;;;5047457;28;20088;-43
2022/10/27 04:06:16;;;;;;;23.10;10.18;;;13.30;99.90;;;;;;5053174;28;20099;-44
2022/10/27 04:08:42;;;;;;;17.42;9.63;;;13.20;99.90;;;;;;5053390;28;20536;-42
2022/10/27 04:11:09;;;;;;;18.08;8.95;;;13.30;99.90;;;;;;5052988;28;20053;-45
2022/10/27 04:13:36;;;;;;;20.42;10.13;;;13.20;99.90;;;;;;5053733;28;20127;-43
2022/10/27 04:16:03;;;;;;;18.02;9.25;;;13.20;99.90;;;;;;5053762;28;20404;-45
2022/10/27 04:18:30;;;;;;;13.23;7.93;;;13.10;99.90;;;;;;5033905;28;20453;-45
2022/10/27 04:21:00;;;;;;;20.73;9.88;;;13.20;99.90;;;;;;5032785;28;20072;-43
2022/10/27 04:23:28;;;;;;;18.77;9.30;;;13.10;99.90;;;;;;5051054;28;20115;-44
2022/10/27 04:25:55;;;;;;;19.27;9.68;;;13.10;99.90;;;;;;5034491;28;20056;-44
2022/10/27 04:28:22;;;;;;;19.63;10.48;;;13.10;99.90;;;;;;5032553;28;20100;-43
2022/10/27 04:30:48;;;;;;;19.00;9.18;;;13.10;99.90;;;;;;5037365;28;20124;-45
2022/10/27 04:33:15;;;;;;;13.05;8.57;;;13.00;99.90;;;;;;5044321;28;20143;-44
2022/10/27 04:35:42;;;;;;;13.57;8.88;;;13.00;99.90;;;;;;5030194;28;20140;-47
2022/10/27 04:38:09;;;;;;;24.30;10.20;;;13.00;99.90;;;;;;5032565;28;20453;-43
2022/10/27 04:40:37;;;;;;;21.08;11.75;;;13.00;99.90;;;;;;5056076;28;20056;-44
2022/10/27 04:43:03;;;;;;;17.35;9.30;;;12.90;99.90;;;;;;5053208;28;20124;-43
2022/10/27 04:45:30;;;;;;;19.42;10.40;;;12.90;99.90;;;;;;5050228;28;20585;-42
2022/10/27 04:47:57;;;;;;;21.08;11.00;;;12.90;99.90;;;;;;5034126;28;20139;-44
2022/10/27 04:50:24;;;;;;;20.85;11.75;;;12.90;99.90;;;;;;5050568;28;20135;-43
2022/10/27 04:52:54;;;;;;;23.10;12.52;;;12.90;99.90;;;;;;5053529;28;20081;-45
2022/10/27 04:55:21;;;;;;;22.10;11.80;;;12.90;99.90;;;;;;5051891;28;20091;-45
2022/10/27 04:57:49;;;;;;;25.38;12.93;;;12.80;99.90;;;;;;5028272;28;20100;-44
2022/10/27 05:00:16;;;;;;;21.55;11.65;;;12.80;99.90;;;;;;5044381;28;20482;-42
2022/10/27 05:02:43;;;;;;;24.02;12.07;;;12.80;99.90;;;;;;5052108;28;20099;-47
2022/10/27 05:05:09;;;;;;;29.95;13.95;;;12.80;99.90;;;;;;5051612;28;20059;-42
2022/10/27 05:07:36;;;;;;;26.52;14.68;;;12.80;99.90;;;;;;5050013;28;20490;-45
2022/10/27 05:10:03;;;;;;;23.48;14.30;;;12.80;99.90;;;;;;5050925;28;20045;-45
2022/10/27 05:12:30;;;;;;;20.35;14.77;;;12.80;99.90;;;;;;5045246;28;20140;-44
2022/10/27 05:14:58;;;;;;;32.35;16.20;;;12.80;99.90;;;;;;5053514;28;20045;-44
2022/10/27 05:17:25;;;;;;;31.40;15.45;;;12.80;99.90;;;;;;5052377;28;20124;-43
2022/10/27 05:19:52;;;;;;;25.33;16.33;;;12.80;99.90;;;;;;5051075;28;20076;-45
2022/10/27 05:22:18;;;;;;;29.27;16.30;;;12.80;99.90;;;;;;5052526;28;20448;-42
2022/10/27 05:24:45;;;;;;;22.20;15.00;;;12.80;99.90;;;;;;5052696;28;20073;-44
2022/10/27 05:27:12;;;;;;;24.92;15.88;;;12.80;99.90;;;;;;5032017;28;20571;-45
2022/10/27 05:29:39;;;;;;;25.13;14.52;;;12.80;99.90;;;;;;5018185;28;20132;-45
2022/10/27 05:32:07;;;;;;;26.27;16.08;;;12.80;99.90;;;;;;5046955;28;20551;-46
2022/10/27 05:34:33;;;;;;;27.23;14.75;;;12.90;99.90;;;;;;5053106;28;20148;-47
2022/10/27 05:37:00;;;;;;;29.40;15.38;;;12.90;99.90;;;;;;5051508;28;20445;-43
2022/10/27 05:39:27;;;;;;;30.17;16.50;;;12.90;99.90;;;;;;5033879;28;20477;-44
2022/10/27 05:41:54;;;;;;;26.00;15.75;;;12.90;99.90;;;;;;5053164;28;20136;-45
2022/10/27 05:44:20;;;;;;;26.38;16.02;;;12.90;99.90;;;;;;5035479;28;20160;-45
2022/10/27 05:46:47;;;;;;;21.10;15.40;;;12.90;99.90;;;;;;5051681;28;20049;-43
2022/10/27 05:49:15;;;;;;;29.02;17.08;;;13.00;99.90;;;;;;5034354;28;20088;-43
2022/10/27 05:51:42;;;;;;;25.55;16.05;;;12.90;99.90;;;;;;5052932;28;20151;-43
2022/10/27 05:54:09;;;;;;;31.52;15.80;;;13.00;99.90;;;;;;5053000;28;20084;-47
2022/10/27 05:56:36;;;;;;;24.73;15.75;;;13.00;99.90;;;;;;5052180;28;20125;-44
2022/10/27 05:59:02;;;;;;;25.95;16.05;;;13.00;99.90;;;;;;5034876;28;20135;-44
2022/10/27 06:01:29;;;;;;;26.80;15.48;;;13.00;99.90;;;;;;5034989;28;20096;-43
2022/10/27 06:03:56;;;;;;;31.50;16.02;;;13.10;99.90;;;;;;5035065;28;20133;-44
2022/10/27 06:06:24;;;;;;;26.85;15.55;;;13.10;99.90;;;;;;5034107;28;20060;-45
2022/10/27 06:08:51;;;;;;;30.23;15.93;;;13.10;99.90;;;;;;5052702;28;20049;-43
2022/10/27 06:11:18;;;;;;;24.30;14.68;;;13.20;99.90;;;;;;5052807;28;20114;-44
2022/10/27 06:13:44;;;;;;;26.95;14.75;;;13.20;99.90;;;;;;5052620;28;20056;-43
2022/10/27 06:16:11;;;;;;;27.60;15.45;;;13.20;99.90;;;;;;5033618;28;20085;-43
2022/10/27 06:18:38;;;;;;;22.95;14.00;;;13.20;99.90;;;;;;5051614;28;20110;-44
2022/10/27 06:21:05;;;;;;;25.90;15.05;;;13.20;99.90;;;;;;5032869;28;20088;-44
2022/10/27 06:23:33;;;;;;;23.58;14.75;;;13.30;99.90;;;;;;5051662;28;20128;-45
2022/10/27 06:26:00;;;;;;;27.25;14.80;;;13.30;99.90;;;;;;5052174;28;20127;-44
2022/10/27 06:28:26;;;;;;;25.88;14.02;;;13.30;99.90;;;;;;5052445;28;20131;-44
2022/10/27 06:30:53;;;;;;;27.38;13.80;;;13.40;99.90;;;;;;5032741;28;20149;-44
2022/10/27 06:33:20;;;;;;;21.63;13.32;;;13.40;99.90;;;;;;5052535;28;20055;-46
2022/10/27 06:35:47;;;;;;;19.00;13.00;;;13.40;99.90;;;;;;5052619;28;20547;-43
2022/10/27 06:38:15;;;;;;;20.95;13.40;;;13.40;99.90;;;;;;5052568;28;20091;-47
2022/10/27 06:40:43;;;;;;;27.05;13.45;;;13.50;99.90;;;;;;5034849;28;20231;-43
2022/10/27 06:43:11;;;;;;;21.15;13.00;;;13.50;99.90;;;;;;5034099;28;20154;-43
2022/10/27 06:45:37;;;;;;;23.08;12.35;;;13.50;99.90;;;;;;5052096;28;20079;-43
2022/10/27 06:48:05;;;;;;;22.15;12.80;;;13.50;99.90;;;;;;5052524;28;20061;-47
2022/10/27 06:50:31;;;;;;;27.27;12.27;;;13.60;99.90;;;;;;5052443;28;20102;-45
2022/10/27 06:53:00;;;;;;;22.75;12.95;;;13.60;99.90;;;;;;5030707;28;20068;-47
2022/10/27 06:55:26;;;;;;;23.15;12.45;;;13.60;99.90;;;;;;5018179;28;20128;-45
2022/10/27 06:57:55;;;;;;;22.17;12.43;;;13.60;99.90;;;;;;5032697;28;20123;-42
2022/10/27 07:00:21;;;;;;;19.10;11.73;;;13.60;99.90;;;;;;5052133;28;20539;-44
2022/10/27 07:02:48;;;;;;;22.77;11.70;;;13.70;99.90;;;;;;5034764;28;20457;-45
2022/10/27 07:05:15;;;;;;;22.48;11.73;;;13.70;99.90;;;;;;5051799;28;20148;-45
2022/10/27 07:07:46;;;;;;;23.88;12.10;;;13.70;99.90;;;;;;5052236;28;20053;-47
2022/10/27 07:10:13;;;;;;;18.85;12.05;;;13.80;99.90;;;;;;5052408;28;20396;-45
2022/10/27 07:12:39;;;;;;;24.00;11.40;;;13.80;99.90;;;;;;5034608;28;20533;-44
2022/10/27 07:15:08;;;;;;;21.92;11.77;;;13.80;99.90;;;;;;5050854;28;20084;-46
2022/10/27 07:17:35;;;;;;;21.02;11.73;;;13.80;99.90;;;;;;5032442;28;20125;-47
2022/10/27 07:20:02;;;;;;;23.38;11.02;;;13.80;99.90;;;;;;5024961;28;20552;-44
2022/10/27 07:22:28;;;;;;;20.45;10.82;;;13.90;99.90;;;;;;5052050;28;20557;-44
2022/10/27 07:24:55;;;;;;;17.83;10.27;;;13.90;99.90;;;;;;5034218;28;20048;-44
2022/10/27 07:27:22;;;;;;;20.83;9.98;;;13.90;99.90;;;;;;5050832;28;20519;-45
2022/10/27 07:29:49;;;;;;;26.90;11.00;;;14.00;99.90;;;;;;5051710;28;20438;-47
2022/10/27 07:32:17;;;;;;;19.98;10.60;;;14.00;99.90;;;;;;5052135;28;20056;-42
2022/10/27 07:34:44;;;;;;;18.73;9.95;;;14.10;99.90;;;;;;5034493;28;20144;-47
2022/10/27 07:37:11;;;;;;;20.00;10.32;;;14.10;99.90;;;;;;5050930;28;20080;-43
2022/10/27 07:39:37;;;;;;;21.67;10.00;;;14.10;99.90;;;;;;5034367;28;20408;-46
2022/10/27 07:42:04;;;;;;;20.05;9.93;;;14.20;99.90;;;;;;5034762;28;20523;-46
2022/10/27 07:44:31;;;;;;;23.27;9.50;;;14.20;99.90;;;;;;5055343;28;20084;-45
2022/10/27 07:46:58;;;;;;;26.83;9.93;;;14.20;99.90;;;;;;5036704;28;20120;-44
2022/10/27 07:49:26;;;;;;;20.02;9.00;;;14.30;99.90;;;;;;5055600;28;20140;-47
2022/10/27 07:51:53;;;;;;;20.10;9.05;;;14.30;99.90;;;;;;5037641;28;20049;-43
2022/10/27 07:54:19;;;;;;;21.95;9.02;;;14.30;99.90;;;;;;5037744;28;20128;-44
2022/10/27 07:56:48;;;;;;;16.38;9.07;;;14.40;99.90;;;;;;5053938;28;20132;-44
2022/10/27 07:59:14;;;;;;;18.60;8.25;;;14.40;99.90;;;;;;5055010;28;20057;-47
2022/10/27 08:01:41;;;;;;;18.17;9.10;;;14.50;99.90;;;;;;5055267;28;20096;-44
2022/10/27 08:04:08;;;;;;;16.55;8.98;;;14.50;99.90;;;;;;5055275;28;20041;-45
2022/10/27 08:06:36;;;;;;;19.40;8.50;;;14.50;99.90;;;;;;5053876;28;20072;-45
2022/10/27 08:09:03;;;;;;;20.98;8.70;;;14.60;99.90;;;;;;5054997;28;20084;-46
2022/10/27 08:11:30;;;;;;;18.05;8.45;;;14.60;99.90;;;;;;5037128;28;20056;-47
2022/10/27 08:13:56;;;;;;;19.02;8.82;;;14.70;99.90;;;;;;5054867;28;20056;-45
2022/10/27 08:16:23;;;;;;;22.45;8.23;;;14.80;99.90;;;;;;5036180;28;20084;-42
2022/10/27 08:18:50;;;;;;;13.90;8.27;;;14.80;99.90;;;;;;5054286;28;20512;-45
2022/10/27 08:21:17;;;;;;;16.48;8.35;;;14.80;99.90;;;;;;5054903;28;20570;-44
2022/10/27 08:23:45;;;;;;;17.27;8.90;;;14.80;99.90;;;;;;5036988;28;20080;-46
2022/10/27 08:26:11;;;;;;;14.55;8.68;;;14.90;99.90;;;;;;5053664;28;20136;-43
2022/10/27 08:28:38;;;;;;;21.25;8.60;;;14.90;99.90;;;;;;5030558;28;20085;-43
2022/10/27 08:31:05;;;;;;;17.80;8.88;;;14.90;99.90;;;;;;5035111;28;20132;-44
2022/10/27 08:33:32;;;;;;;20.58;8.98;;;15.00;99.90;;;;;;5033688;28;20049;-44
2022/10/27 08:36:00;;;;;;;14.45;8.23;;;15.00;99.90;;;;;;5034770;28;20092;-43
2022/10/27 08:38:31;;;;;;;23.13;9.50;;;15.00;99.90;;;;;;5033715;28;20494;-45
2022/10/27 08:41:17;;;;;;;17.93;8.80;;;15.00;99.90;;;;;;5054459;28;20060;-47
2022/10/27 08:44:08;;;;;;;16.85;8.23;;;15.10;99.90;;;;;;5035376;28;20288;-45
2022/10/27 08:46:38;;;;;;;13.45;7.53;;;15.20;99.90;;;;;;5053548;28;20061;-45
2022/10/27 08:49:06;;;;;;;20.23;7.47;;;15.40;99.90;;;;;;5053231;28;20136;-44
2022/10/27 08:51:33;;;;;;;16.75;7.97;;;15.40;99.90;;;;;;5036736;28;20049;-45
2022/10/27 08:54:00;;;;;;;16.92;7.78;;;15.50;99.90;;;;;;5053636;28;20150;-45
2022/10/27 08:56:31;;;;;;;14.68;7.80;;;15.60;99.90;;;;;;5054131;28;20057;-45
2022/10/27 08:58:57;;;;;;;15.67;7.27;;;15.80;99.90;;;;;;5052790;28;20044;-43
2022/10/27 09:01:29;;;;;;;13.98;7.00;;;15.80;99.90;;;;;;5036457;28;20080;-46
2022/10/27 09:04:14;;;;;;;15.15;7.18;;;15.90;99.90;;;;;;5054043;28;20084;-42
2022/10/27 09:06:44;;;;;;;16.17;7.03;;;16.00;99.90;;;;;;5035376;28;20100;-43
2022/10/27 09:09:13;;;;;;;15.20;7.18;;;16.10;99.90;;;;;;5035814;28;20072;-45
2022/10/27 09:11:45;;;;;;;12.80;6.97;;;16.10;99.90;;;;;;5053676;28;20504;-44
2022/10/27 09:14:26;;;;;;;16.10;7.07;;;16.30;99.90;;;;;;5036473;28;20128;-44
2022/10/27 09:16:55;;;;;;;12.27;6.55;;;16.30;99.90;;;;;;5036262;28;20130;-43
2022/10/27 09:19:24;;;;;;;13.18;6.68;;;16.40;99.90;;;;;;5052582;28;20045;-44
2022/10/27 09:21:51;;;;;;;13.55;5.97;;;16.40;99.90;;;;;;5035750;28;20543;-46
2022/10/27 09:24:18;;;;;;;11.45;6.38;;;16.50;99.90;;;;;;5053751;28;20102;-46
2022/10/27 09:26:47;;;;;;;17.65;6.63;;;16.50;99.90;;;;;;5036166;28;20081;-42
2022/10/27 09:29:16;;;;;;;14.20;5.85;;;16.50;99.90;;;;;;5052587;28;20045;-44
2022/10/27 09:31:45;;;;;;;16.95;6.93;;;16.60;99.90;;;;;;5053498;28;20059;-42
2022/10/27 09:34:16;;;;;;;12.07;6.18;;;16.60;99.90;;;;;;5053584;28;20084;-42
2022/10/27 09:36:43;;;;;;;13.48;6.07;;;16.60;99.90;;;;;;5051732;28;20049;-45
2022/10/27 09:39:10;;;;;;;11.45;6.03;;;16.70;99.90;;;;;;5052775;28;20136;-44
2022/10/27 09:41:36;;;;;;;12.00;5.18;;;16.70;99.90;;;;;;5053541;28;20084;-42
2022/10/27 09:44:06;;;;;;;10.75;5.22;;;16.80;99.90;;;;;;5035555;28;20135;-46
2022/10/27 09:46:33;;;;;;;15.90;5.38;;;16.80;99.90;;;;;;5034271;28;20084;-43
2022/10/27 09:49:02;;;;;;;11.95;4.78;;;16.80;99.90;;;;;;5052154;28;20408;-45
2022/10/27 09:51:32;;;;;;;12.68;4.80;;;16.90;99.90;;;;;;5053212;28;20106;-43
2022/10/27 09:54:02;;;;;;;7.80;4.03;;;16.90;99.90;;;;;;5052925;28;20501;-43
2022/10/27 09:56:30;;;;;;;9.98;4.10;;;17.00;99.90;;;;;;5034645;28;20087;-43
2022/10/27 09:58:58;;;;;;;10.18;4.47;;;17.10;99.90;;;;;;5052839;28;20544;-43
2022/10/27 10:01:27;;;;;;;10.15;4.57;;;17.20;99.90;;;;;;5053061;28;20091;-45
2022/10/27 10:03:56;;;;;;;8.65;4.18;;;17.20;99.90;;;;;;5053037;28;20093;-42
2022/10/27 10:06:28;;;;;;;10.82;3.88;;;17.30;99.90;;;;;;5052487;28;20501;-43
2022/10/27 10:08:55;;;;;;;8.75;3.55;;;17.40;99.90;;;;;;5034678;28;20524;-42
2022/10/27 10:11:22;;;;;;;8.25;3.42;;;17.50;99.90;;;;;;5052706;28;20143;-42
2022/10/27 10:13:56;;;;;;;9.68;3.60;;;17.50;99.90;;;;;;5034143;28;20053;-44
2022/10/27 10:16:23;;;;;;;8.80;3.42;;;17.60;99.90;;;;;;5035182;28;20560;-42
2022/10/27 10:19:04;;;;;;;8.68;3.85;;;17.70;99.90;;;;;;5052839;28;20136;-43
2022/10/27 10:21:45;;;;;;;7.50;2.80;;;17.90;99.90;;;;;;5052852;28;20049;-43
2022/10/27 10:24:17;;;;;;;8.95;2.58;;;18.00;99.90;;;;;;5034098;28;20084;-43
2022/10/27 10:26:46;;;;;;;6.93;2.72;;;18.10;99.90;;;;;;5035558;28;20131;-43
2022/10/27 10:29:17;;;;;;;9.32;2.65;;;18.20;99.90;;;;;;5052568;28;20088;-43
2022/10/27 10:31:43;;;;;;;6.28;2.95;;;18.30;99.90;;;;;;5035044;28;20056;-43
2022/10/27 10:34:32;;;;;;;6.78;2.35;;;18.30;99.90;;;;;;5033734;28;20485;-42
2022/10/27 10:36:58;;;;;;;9.65;2.50;;;18.30;99.90;;;;;;5033902;28;20096;-45
2022/10/27 10:39:26;;;;;;;4.72;1.80;;;18.40;99.90;;;;;;5034662;28;20140;-43
2022/10/27 10:42:14;;;;;;;4.22;1.80;;;18.40;99.90;;;;;;5034803;28;20139;-46
2022/10/27 10:44:40;;;;;;;7.20;2.00;;;18.40;99.90;;;;;;5033491;28;20132;-41
2022/10/27 10:47:20;;;;;;;9.38;2.58;;;18.40;99.90;;;;;;5052304;28;20084;-43
2022/10/27 10:49:49;;;;;;;4.32;1.80;;;18.40;99.90;;;;;;5034773;28;20508;-44
2022/10/27 10:52:18;;;;;;;5.85;2.03;;;18.50;99.90;;;;;;5052256;28;20567;-42
2022/10/27 10:54:45;;;;;;;8.18;2.10;;;18.50;99.90;;;;;;5032990;28;20049;-42
2022/10/27 10:57:23;;;;;;;5.00;1.45;;;18.50;99.90;;;;;;5034736;28;20049;-42
2022/10/27 10:59:49;;;;;;;7.28;2.10;;;18.60;99.90;;;;;;5052003;28;20045;-45
2022/10/27 11:02:18;;;;;;;6.45;1.75;;;18.80;99.90;;;;;;5050727;28;20088;-44
2022/10/27 11:04:46;;;;;;;7.22;1.92;;;18.80;99.90;;;;;;5049036;28;20129;-42
2022/10/27 11:07:19;;;;;;;6.72;1.98;;;18.90;99.90;;;;;;5048501;28;20060;-41
2022/10/27 11:09:50;;;;;;;5.28;2.08;;;18.90;99.90;;;;;;5024942;28;20061;-43
2022/10/27 11:12:27;;;;;;;5.35;1.75;;;19.00;99.90;;;;;;5038986;28;20103;-43
2022/10/27 11:14:54;;;;;;;4.13;1.80;;;19.00;99.90;;;;;;5049323;28;20049;-42
2022/10/27 11:17:21;;;;;;;8.20;1.92;;;19.00;99.90;;;;;;5034229;28;20132;-41
2022/10/27 11:19:47;;;;;;;5.28;1.88;;;19.00;99.90;;;;;;5042513;28;20551;-41
2022/10/27 11:22:17;;;;;;;8.82;1.90;;;19.00;99.90;;;;;;5054523;28;20052;-43
2022/10/27 11:24:46;;;;;;;3.10;1.63;;;19.00;99.90;;;;;;5049847;28;20131;-42
2022/10/27 11:27:14;;;;;;;9.60;1.85;;;19.00;99.90;;;;;;5051948;28;20060;-42
2022/10/27 11:29:44;;;;;;;5.40;1.50;;;19.00;99.90;;;;;;5036603;28;20558;-42
2022/10/27 11:32:13;;;;;;;8.63;2.50;;;19.00;99.90;;;;;;5053437;28;20132;-42
2022/10/27 11:34:43;;;;;;;7.43;1.85;;;18.90;99.90;;;;;;5055813;28;20123;-43
2022/10/27 11:37:13;;;;;;;4.95;2.10;;;19.00;99.90;;;;;;5050341;28;20457;-45
2022/10/27 11:39:44;;;;;;;8.95;1.73;;;19.00;99.90;;;;;;5046784;28;20099;-42
2022/10/27 11:42:13;;;;;;;;;;;19.00;99.90;;;;;;5052291;28;20424;-44
2022/10/27 11:44:43;;;;;;;7.65;1.60;;;19.00;99.90;;;;;;5035226;28;19967;-42
2022/10/27 11:47:12;;;;;;;7.53;1.85;;;19.00;99.90;;;;;;5051220;28;20449;-42
2022/10/27 11:49:42;;;;;;;7.28;1.98;;;19.00;99.90;;;;;;5034936;28;20584;-41
2022/10/27 11:52:12;;;;;;;4.75;1.90;;;19.00;99.90;;;;;;5053938;28;20475;-41
2022/10/27 11:54:40;;;;;;;11.68;2.05;;;19.00;99.90;;;;;;5055587;28;20128;-42
2022/10/27 11:57:14;;;;;;;8.98;1.98;;;19.00;99.90;;;;;;5036281;28;20067;-42
2022/10/27 11:59:49;;;;;;;9.20;1.60;;;19.10;99.90;;;;;;5055112;28;20049;-42
2022/10/27 12:02:25;;;;;;;7.15;1.75;;;19.10;99.90;;;;;;5037472;28;20131;-42
2022/10/27 12:04:54;;;;;;;4.22;1.50;;;19.10;99.90;;;;;;5037334;28;20533;-44
2022/10/27 12:07:30;;;;;;;10.30;1.70;;;19.10;99.90;;;;;;5054179;28;20071;-42
2022/10/27 12:10:08;;;;;;;5.47;1.50;;;19.10;99.90;;;;;;5036090;28;20353;-41
2022/10/27 12:12:37;;;;;;;8.52;1.65;;;19.20;99.90;;;;;;5054860;28;20092;-41
2022/10/27 12:15:07;;;;;;;5.35;1.70;;;19.20;99.90;;;;;;5037040;28;20140;-42
2022/10/27 12:17:37;;;;;;;10.90;2.20;;;19.20;99.90;;;;;;5054556;28;20139;-42
2022/10/27 12:20:04;;;;;;;7.72;2.83;;;19.20;99.90;;;;;;5052973;28;20081;-42
2022/10/27 12:22:34;;;;;;;6.55;1.80;;;19.20;99.90;;;;;;5054464;28;20096;-42
2022/10/27 12:25:05;;;;;;;6.00;1.80;;;19.20;99.90;;;;;;5036895;28;20060;-42
2022/10/27 12:27:34;;;;;;;7.47;1.80;;;19.20;99.90;;;;;;5054539;28;20466;-41
2022/10/27 12:30:03;;;;;;;5.32;1.50;;;19.20;99.90;;;;;;5028645;28;20159;-41
2022/10/27 12:32:32;;;;;;;6.30;1.70;;;19.20;99.90;;;;;;5035888;28;20103;-42
2022/10/27 12:35:01;;;;;;;6.72;1.75;;;19.20;99.90;;;;;;5036645;28;20131;-42
2022/10/27 12:37:32;;;;;;;5.90;1.88;;;19.20;99.90;;;;;;5035427;28;20052;-42
2022/10/27 12:40:03;;;;;;;5.60;1.70;;;19.20;99.90;;;;;;5035808;28;20465;-43
2022/10/27 12:42:32;;;;;;;6.22;1.77;;;19.20;99.90;;;;;;5036506;28;20513;-42